Time;durP1;ratioP1;P1;durP2;ratioP2;P2;SDS_P1;SDS_P2;PMS_P1;PMS_P2;Temp;Humidity;BMP_temperature;BMP_pressure;BME280_temperature;BME280_humidity;BME280_pressure;Samples;Min_cycle;Max_cycle;Signal;HPM_P1;HPM_P2
2022/05/28 00:00:53;;;;;;;4.57;1.43;;;8.70;99.90;;;;;;5038266;28;20191;-60
2022/05/28 00:03:20;;;;;;;5.20;1.20;;;8.70;99.90;;;;;;5046735;28;20202;-60
2022/05/28 00:05:46;;;;;;;4.10;2.03;;;8.70;99.90;;;;;;5037332;28;20198;-59
2022/05/28 00:08:11;;;;;;;7.57;1.47;;;8.70;99.90;;;;;;5052782;28;20202;-60
2022/05/28 00:10:37;;;;;;;5.20;1.67;;;8.80;99.90;;;;;;5033314;28;20187;-59
2022/05/28 00:13:03;;;;;;;4.70;1.57;;;8.80;99.90;;;;;;5054201;28;20204;-60
2022/05/28 00:15:28;;;;;;;3.10;2.03;;;8.80;99.90;;;;;;5041071;28;20570;-59
2022/05/28 00:17:54;;;;;;;6.30;2.13;;;8.80;99.90;;;;;;5041592;28;20904;-59
2022/05/28 00:20:19;;;;;;;3.53;1.53;;;8.80;99.90;;;;;;5035902;28;20270;-59
2022/05/28 00:22:45;;;;;;;7.10;1.80;;;8.80;99.90;;;;;;5036172;28;20942;-59
2022/05/28 00:25:13;;;;;;;8.93;1.87;;;8.80;99.90;;;;;;5031301;28;20199;-59
2022/05/28 00:27:40;;;;;;;8.57;1.93;;;8.80;99.90;;;;;;5055149;28;20195;-58
2022/05/28 00:30:09;;;;;;;5.23;1.87;;;8.80;99.90;;;;;;5030569;28;20208;-59
2022/05/28 00:32:34;;;;;;;6.20;2.00;;;8.80;99.90;;;;;;5061312;28;20273;-60
2022/05/28 00:35:00;;;;;;;7.73;1.43;;;8.80;99.90;;;;;;5036422;28;20685;-60
2022/05/28 00:37:26;;;;;;;5.73;1.73;;;8.80;99.90;;;;;;5057604;28;20195;-59
2022/05/28 00:39:51;;;;;;;6.33;1.80;;;8.80;99.90;;;;;;5045626;28;20734;-59
2022/05/28 00:42:17;;;;;;;6.03;1.50;;;8.80;99.90;;;;;;5054161;28;20236;-59
2022/05/28 00:44:42;;;;;;;7.33;2.70;;;8.80;99.90;;;;;;5035456;28;20230;-59
2022/05/28 00:47:08;;;;;;;3.57;1.93;;;8.80;99.90;;;;;;5044782;28;20211;-60
2022/05/28 00:49:34;;;;;;;9.83;2.50;;;8.80;99.90;;;;;;5039574;28;20207;-59
2022/05/28 00:52:02;;;;;;;10.57;2.40;;;8.80;99.90;;;;;;5061127;28;20192;-59
2022/05/28 00:54:38;;;;;;;8.23;2.07;;;8.80;99.90;;;;;;5040652;28;20282;-60
2022/05/28 00:57:05;;;;;;;3.13;1.30;;;8.90;99.90;;;;;;5036503;28;20187;-59
2022/05/28 00:59:30;;;;;;;4.37;1.30;;;8.90;99.90;;;;;;5038656;28;20247;-60
2022/05/28 01:02:04;;;;;;;4.23;1.87;;;8.80;99.90;;;;;;5065143;28;20187;-60
2022/05/28 01:04:52;;;;;;;3.33;1.80;;;8.90;99.90;;;;;;5030365;28;20203;-60
2022/05/28 01:07:30;;;;;;;3.10;1.40;;;8.80;99.90;;;;;;5033805;28;20201;-59
2022/05/28 01:10:25;;;;;;;8.60;2.13;;;8.80;99.90;;;;;;5029706;28;20242;-59
2022/05/28 01:13:22;;;;;;;3.37;1.43;;;8.90;99.90;;;;;;5034983;28;20227;-59
2022/05/28 01:15:59;;;;;;;8.53;1.77;;;8.90;99.90;;;;;;5026523;28;20288;-59
2022/05/28 01:18:33;;;;;;;6.67;2.77;;;8.90;99.90;;;;;;5033769;28;20202;-59
2022/05/28 01:21:04;;;;;;;6.80;2.07;;;8.90;99.90;;;;;;5031947;28;20262;-59
2022/05/28 01:24:00;;;;;;;8.00;1.93;;;8.90;99.90;;;;;;5038081;28;20195;-59
2022/05/28 01:27:01;;;;;;;5.47;2.07;;;8.90;99.90;;;;;;5038897;28;20209;-71
2022/05/28 01:29:31;;;;;;;12.67;2.53;;;8.80;99.90;;;;;;5032865;28;20202;-63
2022/05/28 01:31:58;;;;;;;3.17;1.30;;;9.00;99.90;;;;;;5033853;28;20698;-65
2022/05/28 01:34:25;;;;;;;6.50;1.73;;;9.00;99.90;;;;;;5035880;28;20690;-65
2022/05/28 01:36:51;;;;;;;8.10;3.50;;;9.00;99.90;;;;;;5052873;28;20240;-64
2022/05/28 01:39:18;;;;;;;11.17;2.27;;;9.00;99.90;;;;;;5042793;28;20208;-65
2022/05/28 01:41:47;;;;;;;3.63;1.70;;;9.00;99.90;;;;;;5049770;28;20221;-64
2022/05/28 01:44:15;;;;;;;6.20;1.87;;;9.00;99.90;;;;;;5047985;28;20208;-65
2022/05/28 01:46:42;;;;;;;5.83;2.33;;;8.90;99.90;;;;;;5052957;28;20656;-63
2022/05/28 01:49:11;;;;;;;8.93;2.10;;;9.00;99.90;;;;;;5044222;28;20229;-64
2022/05/28 01:51:43;;;;;;;5.70;1.50;;;9.00;99.90;;;;;;5047010;28;20650;-64
2022/05/28 01:54:13;;;;;;;5.77;2.13;;;9.00;99.90;;;;;;5023478;28;20231;-63
2022/05/28 01:56:43;;;;;;;14.90;2.43;;;9.00;99.90;;;;;;5065432;28;20190;-64
2022/05/28 01:59:14;;;;;;;4.37;1.27;;;9.00;99.90;;;;;;5034608;28;20595;-65
2022/05/28 02:01:40;;;;;;;5.60;1.50;;;9.00;99.90;;;;;;5058677;28;20192;-64
2022/05/28 02:04:07;;;;;;;8.30;2.07;;;9.00;99.90;;;;;;5044958;28;20693;-64
2022/05/28 02:06:35;;;;;;;8.57;2.50;;;9.00;99.90;;;;;;5046076;28;20195;-64
2022/05/28 02:09:03;;;;;;;5.73;1.90;;;9.00;99.90;;;;;;5046250;28;20309;-65
2022/05/28 02:11:42;;;;;;;5.50;2.20;;;8.90;99.90;;;;;;5039035;28;20649;-65
2022/05/28 02:14:26;;;;;;;4.83;1.93;;;8.90;99.90;;;;;;5032726;28;20196;-64
2022/05/28 02:17:24;;;;;;;8.03;2.50;;;8.90;99.90;;;;;;5041561;28;20665;-64
2022/05/28 02:20:09;;;;;;;6.07;1.80;;;9.00;99.90;;;;;;5026600;28;20298;-65
2022/05/28 02:22:53;;;;;;;4.03;1.60;;;9.00;99.90;;;;;;5026920;28;20183;-64
2022/05/28 02:25:26;;;;;;;4.77;2.13;;;8.90;99.90;;;;;;5030809;28;20210;-64
2022/05/28 02:27:52;;;;;;;7.83;1.77;;;8.90;99.90;;;;;;5033844;28;20642;-63
2022/05/28 02:30:18;;;;;;;3.90;1.60;;;8.90;99.90;;;;;;5027654;28;20328;-64
2022/05/28 02:32:43;;;;;;;5.13;1.50;;;8.80;99.90;;;;;;5050339;28;20677;-63
2022/05/28 02:35:10;;;;;;;7.30;2.10;;;8.80;99.90;;;;;;5046374;28;20245;-64
2022/05/28 02:37:37;;;;;;;6.93;2.53;;;8.90;99.90;;;;;;5047977;28;20232;-64
2022/05/28 02:40:03;;;;;;;4.13;1.87;;;8.90;99.90;;;;;;5040780;28;20273;-64
2022/05/28 02:42:29;;;;;;;6.23;2.20;;;8.80;99.90;;;;;;5049350;28;20200;-64
2022/05/28 02:44:55;;;;;;;12.07;1.93;;;8.90;99.90;;;;;;5038200;28;20197;-64
2022/05/28 02:47:20;;;;;;;8.80;2.37;;;8.80;99.90;;;;;;5042969;28;20210;-64
2022/05/28 02:49:46;;;;;;;5.43;1.73;;;8.90;99.90;;;;;;5033304;28;20754;-64
2022/05/28 02:52:12;;;;;;;7.13;1.80;;;8.90;99.90;;;;;;5057750;28;20211;-64
2022/05/28 02:54:38;;;;;;;8.57;1.80;;;8.80;99.90;;;;;;5033564;28;20234;-65
2022/05/28 02:57:04;;;;;;;9.27;1.90;;;8.80;99.90;;;;;;5055518;28;20279;-65
2022/05/28 02:59:30;;;;;;;6.30;2.53;;;8.80;99.90;;;;;;5035549;28;20190;-65
2022/05/28 03:01:56;;;;;;;5.70;2.07;;;8.80;99.90;;;;;;5050582;28;20371;-65
2022/05/28 03:04:21;;;;;;;5.83;1.77;;;8.80;99.90;;;;;;5037050;28;20187;-65
2022/05/28 03:06:47;;;;;;;11.30;2.43;;;8.80;99.90;;;;;;5053722;28;20194;-66
2022/05/28 03:09:14;;;;;;;5.43;2.23;;;8.90;99.90;;;;;;5040254;28;20237;-64
2022/05/28 03:11:39;;;;;;;7.93;1.70;;;8.90;99.90;;;;;;5056974;28;20298;-64
2022/05/28 03:14:05;;;;;;;10.27;1.33;;;8.90;99.90;;;;;;5036259;28;20758;-65
2022/05/28 03:16:31;;;;;;;6.07;2.47;;;8.90;99.90;;;;;;5057662;28;20192;-66
2022/05/28 03:18:57;;;;;;;5.33;1.73;;;8.90;99.90;;;;;;5042549;28;20701;-65
2022/05/28 03:21:22;;;;;;;6.67;2.43;;;9.00;99.90;;;;;;5049825;28;20193;-64
2022/05/28 03:23:48;;;;;;;9.60;1.90;;;9.00;99.90;;;;;;5044215;28;20675;-65
2022/05/28 03:26:16;;;;;;;9.87;1.90;;;9.00;99.90;;;;;;5059642;28;20195;-64
2022/05/28 03:28:42;;;;;;;4.37;1.80;;;9.10;99.90;;;;;;5040348;28;20681;-63
2022/05/28 03:31:08;;;;;;;7.43;2.07;;;9.10;99.90;;;;;;5048359;28;20198;-63
2022/05/28 03:33:34;;;;;;;5.83;1.73;;;9.00;99.90;;;;;;5037123;28;20200;-63
2022/05/28 03:35:59;;;;;;;3.93;1.40;;;9.00;99.90;;;;;;5053546;28;20212;-64
2022/05/28 03:38:25;;;;;;;10.67;2.67;;;9.10;99.90;;;;;;5035202;28;20199;-64
2022/05/28 03:40:50;;;;;;;8.40;2.27;;;9.10;99.90;;;;;;5054625;28;20763;-64
2022/05/28 03:43:16;;;;;;;8.33;2.03;;;9.10;99.90;;;;;;5048273;28;20212;-64
2022/05/28 03:45:41;;;;;;;3.23;1.20;;;9.20;99.90;;;;;;5059788;28;20684;-64
2022/05/28 03:48:10;;;;;;;5.93;1.93;;;9.20;99.90;;;;;;5042141;28;20226;-64
2022/05/28 03:50:35;;;;;;;7.37;2.43;;;9.30;99.90;;;;;;5048935;28;20554;-64
2022/05/28 03:53:01;;;;;;;7.87;2.47;;;9.30;99.90;;;;;;5043127;28;20208;-64
2022/05/28 03:55:27;;;;;;;9.30;2.20;;;9.30;99.90;;;;;;5053955;28;20249;-64
2022/05/28 03:57:52;;;;;;;6.07;2.30;;;9.30;99.90;;;;;;5045255;28;20840;-64
2022/05/28 04:00:19;;;;;;;6.07;1.60;;;9.40;99.90;;;;;;5055325;28;20214;-65
2022/05/28 04:02:44;;;;;;;5.63;1.47;;;9.40;99.90;;;;;;5046287;28;20283;-64
2022/05/28 04:05:10;;;;;;;6.10;2.30;;;9.40;99.90;;;;;;5059212;28;20370;-64
2022/05/28 04:07:37;;;;;;;10.73;2.60;;;9.40;99.90;;;;;;5055160;28;20199;-64
2022/05/28 04:10:04;;;;;;;8.07;2.30;;;9.50;99.90;;;;;;5033878;28;20197;-65
2022/05/28 04:12:30;;;;;;;4.90;2.33;;;9.50;99.90;;;;;;5044708;28;20211;-65
2022/05/28 04:14:55;;;;;;;5.87;2.13;;;9.60;99.90;;;;;;5028348;28;20213;-65
2022/05/28 04:17:21;;;;;;;8.23;1.60;;;9.60;99.90;;;;;;5053658;28;20207;-65
2022/05/28 04:19:47;;;;;;;7.47;2.63;;;9.70;99.90;;;;;;4998980;28;20206;-64
2022/05/28 04:22:13;;;;;;;4.57;2.00;;;9.60;99.90;;;;;;5060168;28;20199;-66
2022/05/28 04:24:38;;;;;;;7.50;1.80;;;9.40;99.90;;;;;;5028637;28;20673;-63
2022/05/28 04:27:04;;;;;;;12.23;2.97;;;9.10;99.90;;;;;;5058660;28;20202;-63
2022/05/28 04:29:30;;;;;;;6.77;2.03;;;9.00;99.90;;;;;;5042579;28;20184;-64
2022/05/28 04:31:55;;;;;;;9.40;2.10;;;8.90;99.90;;;;;;5036935;28;20324;-63
2022/05/28 04:34:21;;;;;;;7.67;2.50;;;8.70;99.90;;;;;;5040477;28;20215;-64
2022/05/28 04:36:46;;;;;;;5.07;3.13;;;8.70;99.90;;;;;;5041549;28;20197;-65
2022/05/28 04:39:12;;;;;;;7.27;2.50;;;8.60;99.90;;;;;;5045689;28;20179;-64
2022/05/28 04:41:37;;;;;;;6.37;2.17;;;8.60;99.90;;;;;;5054972;28;20290;-65
2022/05/28 04:44:03;;;;;;;9.33;2.83;;;8.40;99.90;;;;;;5031049;28;20257;-64
2022/05/28 04:46:28;;;;;;;4.87;1.93;;;8.30;99.90;;;;;;5046528;28;20226;-64
2022/05/28 04:48:54;;;;;;;5.10;2.37;;;8.40;99.90;;;;;;5036726;28;20211;-64
2022/05/28 04:51:20;;;;;;;8.77;3.27;;;8.40;99.90;;;;;;5052131;28;20649;-65
2022/05/28 04:53:46;;;;;;;11.03;3.30;;;8.30;99.90;;;;;;5053261;28;20218;-64
2022/05/28 04:56:12;;;;;;;5.93;2.87;;;8.30;99.90;;;;;;5051777;28;20218;-65
2022/05/28 04:58:37;;;;;;;11.50;4.40;;;8.30;99.90;;;;;;5037734;28;20206;-65
2022/05/28 05:01:03;;;;;;;8.67;4.70;;;8.20;99.90;;;;;;5055026;28;20247;-66
2022/05/28 05:03:28;;;;;;;8.60;3.10;;;8.20;99.90;;;;;;5035121;28;20721;-65
2022/05/28 05:05:54;;;;;;;4.47;2.60;;;8.20;99.90;;;;;;5047278;28;20637;-66
2022/05/28 05:08:19;;;;;;;2.43;1.97;;;8.20;99.90;;;;;;5045864;28;20199;-66
2022/05/28 05:10:46;;;;;;;6.70;3.77;;;8.10;99.90;;;;;;5057407;28;20195;-65
2022/05/28 05:13:13;;;;;;;13.13;3.40;;;8.10;99.90;;;;;;5036577;28;20211;-65
2022/05/28 05:15:38;;;;;;;9.67;4.30;;;8.20;99.90;;;;;;5042774;28;20222;-65
2022/05/28 05:18:04;;;;;;;3.77;2.03;;;8.30;99.90;;;;;;5041525;28;20203;-65
2022/05/28 05:20:30;;;;;;;7.03;1.70;;;8.40;99.90;;;;;;5051052;28;20198;-65
2022/05/28 05:22:55;;;;;;;4.00;2.37;;;8.40;99.90;;;;;;5045909;28;20219;-65
2022/05/28 05:25:21;;;;;;;4.53;1.30;;;8.50;99.90;;;;;;5064484;28;20191;-66
2022/05/28 05:27:47;;;;;;;3.40;1.90;;;8.60;99.90;;;;;;5045669;28;20207;-66
2022/05/28 05:30:13;;;;;;;5.73;1.50;;;8.60;99.90;;;;;;5049224;28;20580;-66
2022/05/28 05:32:39;;;;;;;2.03;1.23;;;8.80;99.90;;;;;;5037271;28;20205;-67
2022/05/28 05:35:05;;;;;;;5.43;1.70;;;9.00;99.90;;;;;;5044860;28;20213;-67
2022/05/28 05:37:30;;;;;;;5.00;2.23;;;9.10;99.90;;;;;;5051860;28;20203;-67
2022/05/28 05:39:56;;;;;;;6.33;1.60;;;9.10;99.90;;;;;;5036782;28;20176;-66
2022/05/28 05:42:22;;;;;;;2.77;1.40;;;9.20;99.90;;;;;;5045601;28;20187;-66
2022/05/28 05:44:47;;;;;;;6.23;1.80;;;9.20;99.90;;;;;;5034167;28;20183;-66
2022/05/28 05:47:13;;;;;;;2.40;1.40;;;9.30;99.90;;;;;;5055689;28;20203;-67
2022/05/28 05:49:38;;;;;;;4.53;1.60;;;9.40;99.90;;;;;;5030711;28;20184;-66
2022/05/28 05:52:04;;;;;;;3.30;1.73;;;9.40;99.90;;;;;;5041018;28;20196;-65
2022/05/28 05:54:30;;;;;;;7.60;2.47;;;9.40;99.90;;;;;;5052058;28;20652;-66
2022/05/28 05:56:56;;;;;;;5.77;1.90;;;9.50;99.90;;;;;;5041035;28;20188;-66
2022/05/28 05:59:22;;;;;;;6.37;2.03;;;9.50;99.90;;;;;;5037541;28;20230;-65
2022/05/28 06:01:48;;;;;;;3.93;1.60;;;9.50;99.90;;;;;;5053593;28;20244;-64
2022/05/28 06:04:14;;;;;;;1.73;1.13;;;9.60;99.90;;;;;;5045590;28;20176;-65
2022/05/28 06:06:40;;;;;;;2.10;1.57;;;9.70;99.90;;;;;;5039285;28;20186;-65
2022/05/28 06:09:05;;;;;;;2.87;1.90;;;9.70;99.90;;;;;;5052616;28;20241;-64
2022/05/28 06:11:32;;;;;;;4.13;1.10;;;9.70;99.90;;;;;;5050512;28;20219;-63
2022/05/28 06:13:57;;;;;;;5.77;1.93;;;9.70;99.90;;;;;;5031084;28;20626;-64
2022/05/28 06:16:23;;;;;;;5.73;2.20;;;9.80;99.90;;;;;;5059762;28;20272;-64
2022/05/28 06:18:48;;;;;;;10.60;1.43;;;9.90;99.90;;;;;;5037407;28;20630;-64
2022/05/28 06:21:14;;;;;;;3.63;1.60;;;9.90;99.90;;;;;;5045579;28;20195;-64
2022/05/28 06:23:41;;;;;;;4.00;1.53;;;10.00;99.90;;;;;;5038927;28;20283;-64
2022/05/28 06:26:07;;;;;;;4.60;1.40;;;10.10;99.90;;;;;;5064375;28;20741;-63
2022/05/28 06:28:33;;;;;;;2.33;1.40;;;10.20;99.90;;;;;;5034081;28;20689;-64
2022/05/28 06:31:00;;;;;;;1.97;1.37;;;10.20;99.90;;;;;;5063299;28;20202;-64
2022/05/28 06:33:25;;;;;;;4.13;1.73;;;10.10;99.90;;;;;;5039229;28;20198;-63
2022/05/28 06:35:56;;;;;;;7.17;2.13;;;10.20;99.90;;;;;;5068442;28;20208;-62
2022/05/28 06:38:21;;;;;;;4.10;1.00;;;10.40;99.90;;;;;;5049356;28;20614;-63
2022/05/28 06:40:47;;;;;;;8.23;1.60;;;10.40;99.90;;;;;;5062801;28;20195;-61
2022/05/28 06:43:12;;;;;;;3.97;1.67;;;10.40;99.90;;;;;;5038074;28;20548;-63
2022/05/28 06:45:37;;;;;;;3.73;1.20;;;10.60;99.90;;;;;;5065628;28;20219;-63
2022/05/28 06:48:03;;;;;;;4.57;1.67;;;10.70;99.90;;;;;;5044295;28;20213;-61
2022/05/28 06:53:13;;;;;;;1.60;1.40;;;10.70;99.90;;;;;;5047276;28;20233;-60
2022/05/28 06:55:38;;;;;;;6.47;2.23;;;10.60;99.90;;;;;;5041308;28;20208;-62
2022/05/28 06:58:06;;;;;;;5.57;1.97;;;10.60;99.90;;;;;;5036337;28;20931;-61
2022/05/28 07:00:32;;;;;;;3.10;1.33;;;10.70;99.90;;;;;;5042037;28;20194;-62
2022/05/28 07:02:57;;;;;;;7.03;2.23;;;10.70;99.90;;;;;;5044013;28;20216;-61
2022/05/28 07:05:23;;;;;;;2.83;1.73;;;10.80;99.90;;;;;;5041566;28;20203;-61
2022/05/28 07:07:48;;;;;;;4.23;1.60;;;10.70;99.90;;;;;;5061424;28;20623;-61
2022/05/28 07:10:14;;;;;;;2.17;1.67;;;11.00;99.90;;;;;;5056264;28;20206;-61
2022/05/28 07:12:39;;;;;;;2.37;1.77;;;11.20;99.90;;;;;;5039170;28;20213;-61
2022/05/28 07:15:06;;;;;;;7.93;1.73;;;11.20;99.90;;;;;;5046540;28;20212;-61
2022/05/28 07:17:32;;;;;;;2.03;1.10;;;11.20;99.90;;;;;;5052696;28;20196;-61
2022/05/28 07:19:57;;;;;;;5.57;1.80;;;11.20;99.90;;;;;;5036008;28;20671;-61
2022/05/28 07:22:23;;;;;;;2.13;1.37;;;11.00;99.90;;;;;;5062553;28;20197;-59
2022/05/28 07:24:48;;;;;;;6.03;1.63;;;11.10;99.90;;;;;;5060488;28;20190;-60
2022/05/28 07:27:14;;;;;;;2.97;1.80;;;11.30;99.90;;;;;;5062031;28;20243;-61
2022/05/28 07:29:39;;;;;;;2.13;1.03;;;11.40;99.90;;;;;;5053518;28;20650;-61
2022/05/28 07:32:06;;;;;;;3.47;1.20;;;11.50;99.90;;;;;;5044079;28;20679;-62
2022/05/28 07:34:32;;;;;;;4.00;1.93;;;11.70;99.90;;;;;;5029602;28;20633;-63
2022/05/28 07:36:57;;;;;;;4.20;1.10;;;11.60;99.90;;;;;;5061987;28;20296;-63
2022/05/28 07:39:23;;;;;;;4.67;1.57;;;11.50;99.90;;;;;;5045786;28;20187;-64
2022/05/28 07:41:48;;;;;;;2.87;1.50;;;11.40;99.90;;;;;;5039267;28;20207;-63
2022/05/28 07:44:14;;;;;;;6.37;1.53;;;11.50;99.90;;;;;;5036349;28;20183;-63
2022/05/28 07:46:40;;;;;;;5.27;1.43;;;11.80;99.90;;;;;;5051700;28;20547;-63
2022/05/28 07:49:07;;;;;;;2.53;1.50;;;12.00;99.90;;;;;;5036684;28;20266;-64
2022/05/28 07:51:33;;;;;;;6.17;1.33;;;12.10;99.90;;;;;;5053313;28;20686;-63
2022/05/28 07:53:58;;;;;;;5.87;1.83;;;12.10;99.90;;;;;;5040178;28;20234;-64
2022/05/28 07:56:24;;;;;;;3.00;1.30;;;12.20;99.90;;;;;;5051970;28;20219;-64
2022/05/28 07:58:54;;;;;;;5.90;2.07;;;12.30;99.90;;;;;;5047543;28;20199;-64
2022/05/28 08:01:23;;;;;;;3.73;1.33;;;12.10;99.90;;;;;;5032836;28;20186;-64
2022/05/28 08:03:49;;;;;;;5.13;1.80;;;12.20;99.90;;;;;;5040345;28;20262;-64
2022/05/28 08:06:15;;;;;;;4.57;1.33;;;12.30;99.90;;;;;;5054671;28;20205;-64
2022/05/28 08:08:41;;;;;;;3.53;2.20;;;12.50;99.90;;;;;;5038488;28;20210;-64
2022/05/28 08:11:07;;;;;;;5.30;1.47;;;12.50;99.90;;;;;;5052299;28;20205;-63
2022/05/28 08:13:33;;;;;;;3.87;1.43;;;12.50;99.90;;;;;;5040188;28;20207;-64
2022/05/28 08:16:00;;;;;;;3.50;1.30;;;12.70;99.90;;;;;;5060174;28;20218;-62
2022/05/28 08:18:26;;;;;;;5.23;2.17;;;13.00;99.90;;;;;;5036700;28;20309;-63
2022/05/28 08:23:40;;;;;;;6.07;1.90;;;12.90;99.90;;;;;;5033248;28;20246;-62
2022/05/28 08:26:06;;;;;;;4.87;1.60;;;12.70;99.90;;;;;;5041954;28;20286;-62
2022/05/28 08:28:32;;;;;;;4.93;2.07;;;12.60;99.90;;;;;;5039835;28;20208;-62
2022/05/28 08:30:57;;;;;;;4.67;1.43;;;12.70;99.90;;;;;;5052120;28;20230;-64
2022/05/28 08:33:23;;;;;;;5.33;2.47;;;12.70;99.90;;;;;;5045714;28;20289;-62
2022/05/28 08:35:50;;;;;;;3.13;1.07;;;12.70;99.90;;;;;;5056036;28;20248;-62
2022/05/28 08:38:19;;;;;;;5.07;1.77;;;12.80;99.90;;;;;;5036118;28;20624;-63
2022/05/28 08:41:06;;;;;;;4.47;1.50;;;12.70;99.90;;;;;;5062879;28;20210;-63
2022/05/28 08:43:35;;;;;;;4.93;1.50;;;12.80;99.90;;;;;;5035121;28;20683;-64
2022/05/28 08:46:01;;;;;;;5.37;1.20;;;13.00;99.90;;;;;;5047119;28;20194;-64
2022/05/28 08:48:48;;;;;;;6.03;2.13;;;13.40;99.90;;;;;;5049314;28;20666;-62
2022/05/28 08:51:33;;;;;;;3.50;1.20;;;13.40;99.90;;;;;;5043682;28;20619;-63
2022/05/28 08:54:02;;;;;;;3.13;1.30;;;12.70;99.90;;;;;;5037192;28;20236;-63
2022/05/28 08:56:28;;;;;;;1.93;1.20;;;12.40;99.90;;;;;;5032883;28;20206;-64
2022/05/28 08:59:15;;;;;;;4.77;1.60;;;12.40;99.90;;;;;;5041750;28;20611;-64
2022/05/28 09:01:44;;;;;;;5.40;2.00;;;12.60;99.90;;;;;;5066420;28;20277;-64
2022/05/28 09:04:25;;;;;;;3.60;1.77;;;13.00;99.90;;;;;;5040545;28;20197;-64
2022/05/28 09:06:55;;;;;;;3.27;1.37;;;13.20;99.90;;;;;;5043239;28;20198;-65
2022/05/28 09:09:40;;;;;;;5.37;1.80;;;13.50;99.90;;;;;;5055952;28;20735;-63
2022/05/28 09:12:14;;;;;;;2.57;1.70;;;13.50;99.00;;;;;;5040688;28;20270;-63
2022/05/28 09:14:40;;;;;;;8.73;2.17;;;13.40;98.70;;;;;;5035098;28;20699;-66
2022/05/28 09:17:17;;;;;;;7.53;1.93;;;13.30;98.30;;;;;;5060839;28;20271;-67
2022/05/28 09:19:45;;;;;;;4.63;1.47;;;13.50;98.20;;;;;;5033541;28;20203;-65
2022/05/28 09:22:11;;;;;;;4.10;1.40;;;13.60;97.70;;;;;;5043537;28;20203;-66
2022/05/28 09:24:39;;;;;;;4.67;1.90;;;13.50;98.10;;;;;;5044106;28;20199;-66
2022/05/28 09:27:29;;;;;;;8.53;1.77;;;13.60;97.90;;;;;;5048782;28;20197;-68
2022/05/28 09:30:38;;;;;;;10.30;1.93;;;13.50;97.20;;;;;;5043527;28;20210;-66
2022/05/28 09:33:44;;;;;;;3.53;1.40;;;13.60;97.10;;;;;;5038355;28;20238;-66
2022/05/28 09:36:37;;;;;;;10.07;2.17;;;13.60;96.50;;;;;;5041053;28;20616;-65
2022/05/28 09:39:28;;;;;;;6.77;1.43;;;13.50;96.60;;;;;;5024549;28;20202;-66
2022/05/28 09:42:25;;;;;;;3.27;1.30;;;13.70;96.50;;;;;;5042946;28;20179;-66
2022/05/28 09:45:21;;;;;;;4.93;1.73;;;14.00;97.00;;;;;;5025827;28;20187;-66
2022/05/28 09:47:49;;;;;;;5.17;1.50;;;14.30;95.40;;;;;;5036223;28;20210;-67
2022/05/28 09:50:27;;;;;;;3.50;2.00;;;14.20;93.60;;;;;;5031207;28;20717;-68
2022/05/28 09:55:58;;;;;;;3.13;1.53;;;13.90;93.90;;;;;;5034141;28;20249;-69
2022/05/28 09:58:27;;;;;;;3.27;1.80;;;13.60;96.50;;;;;;5035631;28;20202;-67
2022/05/28 10:01:03;;;;;;;6.63;2.00;;;13.20;97.80;;;;;;5038594;28;20348;-68
2022/05/28 10:06:17;;;;;;;3.20;0.90;;;13.20;99.60;;;;;;5039077;28;20497;-65
2022/05/28 10:08:42;;;;;;;4.80;1.50;;;13.30;99.70;;;;;;5041400;28;20220;-65
2022/05/28 10:11:18;;;;;;;3.70;1.80;;;13.40;99.20;;;;;;5054076;28;20199;-64
2022/05/28 10:13:48;;;;;;;4.00;2.30;;;13.70;98.60;;;;;;5032704;28;20576;-64
2022/05/28 10:16:18;;;;;;;8.70;2.53;;;13.80;98.40;;;;;;5054840;28;20209;-66
2022/05/28 10:18:56;;;;;;;4.93;1.90;;;13.70;99.50;;;;;;5034288;28;20759;-63
2022/05/28 10:21:29;;;;;;;2.67;1.30;;;13.70;98.90;;;;;;5055650;28;20289;-65
2022/05/28 10:24:01;;;;;;;6.57;2.33;;;13.70;99.40;;;;;;5035934;28;20546;-66
2022/05/28 10:26:39;;;;;;;6.20;1.77;;;13.90;99.50;;;;;;5048995;28;20946;-65
2022/05/28 10:29:16;;;;;;;4.30;1.47;;;14.00;98.40;;;;;;5032517;28;20210;-65
2022/05/28 10:31:46;;;;;;;4.43;1.53;;;14.20;98.40;;;;;;5032083;28;20213;-65
2022/05/28 10:34:34;;;;;;;6.93;1.97;;;14.40;97.40;;;;;;5037903;28;20210;-65
2022/05/28 10:37:25;;;;;;;6.13;1.57;;;14.60;98.80;;;;;;5039001;28;20231;-64
2022/05/28 10:40:08;;;;;;;2.20;1.23;;;15.10;95.20;;;;;;5032269;28;20206;-63
2022/05/28 10:42:34;;;;;;;8.60;1.87;;;15.00;95.10;;;;;;5037363;28;20202;-64
2022/05/28 10:45:00;;;;;;;6.00;1.90;;;15.30;94.50;;;;;;5039282;28;20285;-73
2022/05/28 10:47:50;;;;;;;4.87;1.30;;;15.10;93.70;;;;;;5048111;28;20219;-70
2022/05/28 10:50:46;;;;;;;3.07;1.27;;;15.10;94.30;;;;;;5029491;28;20188;-66
2022/05/28 10:53:32;;;;;;;3.03;1.70;;;14.90;94.20;;;;;;5030666;28;20985;-65
2022/05/28 10:56:22;;;;;;;4.63;1.93;;;14.90;94.90;;;;;;5026713;28;20211;-63
2022/05/28 10:59:01;;;;;;;5.73;2.30;;;14.90;93.30;;;;;;5033356;28;20257;-71
2022/05/28 11:01:37;;;;;;;3.67;1.50;;;14.80;93.10;;;;;;5038038;28;20190;-71
2022/05/28 11:04:22;;;;;;;2.63;1.60;;;15.00;93.20;;;;;;5038584;28;20206;-68
2022/05/28 11:06:57;;;;;;;6.27;2.03;;;15.20;91.30;;;;;;5036995;28;20190;-70
2022/05/28 11:09:25;;;;;;;4.03;2.10;;;16.20;88.90;;;;;;5028752;28;20300;-69
2022/05/28 11:12:03;;;;;;;7.13;1.57;;;17.20;83.70;;;;;;5055000;28;20272;-69
2022/05/28 11:14:56;;;;;;;5.27;2.00;;;17.80;79.60;;;;;;5031618;28;20238;-69
2022/05/28 11:17:43;;;;;;;3.03;1.77;;;17.30;79.70;;;;;;5038294;28;20191;-69
2022/05/28 11:20:21;;;;;;;4.23;2.07;;;16.90;79.40;;;;;;5037440;28;20556;-68
2022/05/28 11:23:24;;;;;;;8.17;2.53;;;17.40;79.10;;;;;;5037763;28;20690;-67
2022/05/28 11:25:50;;;;;;;3.13;1.90;;;18.00;76.10;;;;;;5052253;28;20543;-65
2022/05/28 11:28:29;;;;;;;5.17;2.00;;;18.70;74.00;;;;;;5061658;28;20187;-65
2022/05/28 11:31:00;;;;;;;5.40;1.13;;;17.80;73.70;;;;;;5039583;28;20218;-65
2022/05/28 11:33:36;;;;;;;9.70;2.47;;;17.70;73.30;;;;;;5036569;28;20207;-66
2022/05/28 11:36:16;;;;;;;3.10;2.13;;;18.30;74.00;;;;;;5034204;28;20213;-65
2022/05/28 11:38:52;;;;;;;5.43;1.40;;;18.70;71.80;;;;;;5037380;28;20264;-64
2022/05/28 11:41:34;;;;;;;8.50;2.63;;;17.80;74.70;;;;;;5040494;28;20190;-62
2022/05/28 11:44:10;;;;;;;4.53;2.10;;;14.70;99.90;;;;;;5029201;28;20202;-60
2022/05/28 11:47:09;;;;;;;4.00;2.07;;;12.60;99.90;;;;;;5039548;28;20688;-59
2022/05/28 11:53:33;;;;;;;8.90;2.57;;;12.40;99.90;;;;;;5020718;28;20190;-60
2022/05/28 11:56:08;;;;;;;4.37;2.13;;;12.60;99.90;;;;;;5051816;28;20215;-59
2022/05/28 11:58:41;;;;;;;6.33;2.33;;;13.60;99.90;;;;;;5039696;28;20195;-59
2022/05/28 12:01:16;;;;;;;4.60;2.07;;;14.40;99.90;;;;;;5030489;28;20597;-72
2022/05/28 12:03:44;;;;;;;5.90;2.03;;;15.20;99.90;;;;;;5037227;28;20396;-59
2022/05/28 12:06:22;;;;;;;2.80;1.73;;;15.50;99.90;;;;;;5036951;28;20207;-60
2022/05/28 12:09:10;;;;;;;3.43;1.83;;;15.90;99.90;;;;;;5037661;28;20186;-59
2022/05/28 12:11:49;;;;;;;5.40;2.20;;;16.00;99.90;;;;;;5033891;28;20213;-61
2022/05/28 12:14:31;;;;;;;5.17;1.57;;;16.30;99.90;;;;;;5031801;28;20274;-61
2022/05/28 12:17:18;;;;;;;5.97;2.10;;;16.60;97.70;;;;;;5048102;28;20894;-61
2022/05/28 12:19:47;;;;;;;4.20;1.50;;;17.50;94.40;;;;;;5042371;28;20285;-62
2022/05/28 12:22:30;;;;;;;5.93;1.60;;;17.40;92.90;;;;;;5030309;28;20212;-61
2022/05/28 12:25:11;;;;;;;3.80;1.53;;;17.50;91.90;;;;;;5059290;28;20302;-61
2022/05/28 12:27:38;;;;;;;4.50;1.97;;;17.00;90.70;;;;;;5033674;28;20234;-61
2022/05/28 12:30:08;;;;;;;3.03;1.57;;;16.10;91.80;;;;;;5063611;28;20264;-64
2022/05/28 12:32:50;;;;;;;6.80;2.27;;;15.70;95.20;;;;;;5032984;28;20191;-65
2022/05/28 12:35:16;;;;;;;2.73;1.80;;;14.20;99.90;;;;;;5050651;28;20210;-67
2022/05/28 12:37:47;;;;;;;7.70;2.53;;;12.50;99.90;;;;;;5026799;28;20681;-67
2022/05/28 12:40:50;;;;;;;6.23;2.63;;;12.00;99.90;;;;;;5045950;28;20198;-67
2022/05/28 12:43:30;;;;;;;2.40;2.20;;;12.40;99.90;;;;;;5039564;28;20185;-68
2022/05/28 12:45:58;;;;;;;4.00;1.87;;;13.80;99.90;;;;;;5024937;28;20256;-69
2022/05/28 12:48:29;;;;;;;5.63;2.50;;;15.30;99.90;;;;;;5052770;28;20218;-68
2022/05/28 12:51:19;;;;;;;7.33;2.20;;;16.50;99.90;;;;;;5039593;28;20207;-69
2022/05/28 12:53:54;;;;;;;3.23;1.60;;;17.20;99.60;;;;;;5040486;28;20317;-69
2022/05/28 12:56:28;;;;;;;1.70;1.47;;;17.60;96.40;;;;;;5045612;28;20297;-69
2022/05/28 12:59:08;;;;;;;4.77;1.10;;;18.30;94.00;;;;;;5029204;28;20655;-69
2022/05/28 13:01:35;;;;;;;3.03;1.33;;;18.60;91.20;;;;;;5036080;28;20203;-68
2022/05/28 13:04:07;;;;;;;3.10;1.20;;;18.10;90.60;;;;;;5041553;28;20744;-71
2022/05/28 13:06:45;;;;;;;2.20;1.17;;;17.20;91.40;;;;;;5025931;28;20275;-71
2022/05/28 13:09:12;;;;;;;2.77;1.27;;;17.90;89.90;;;;;;5049143;28;20292;-71
2022/05/28 13:11:42;;;;;;;4.63;1.40;;;17.40;85.90;;;;;;5046325;28;20700;-71
2022/05/28 13:14:32;;;;;;;8.07;1.37;;;16.70;87.60;;;;;;5031211;28;20728;-70
2022/05/28 13:17:08;;;;;;;3.43;1.70;;;16.20;90.10;;;;;;5033107;28;20498;-72
2022/05/28 13:20:03;;;;;;;3.20;1.50;;;15.80;86.70;;;;;;5038796;28;20186;-71
2022/05/28 13:22:56;;;;;;;2.90;1.43;;;15.60;88.60;;;;;;5030931;28;20244;-70
2022/05/28 13:25:55;;;;;;;1.87;1.67;;;15.80;88.20;;;;;;5029614;28;20222;-66